This is the latest recevied weather packets stored in our database for station/object EA3CO-11. If no packets are shown the sender has not sent any weather packets the latest 10 day(s).
| Time | Temp. | Humidity | Pressure | Rain* | Wind** | Luminosity | Snow |
|---|---|---|---|---|---|---|---|
| 1777994244 | 17.78° C | 62% | 1012.7 hPa | - | - | - | - |
| 1777993344 | 18.33° C | 59% | 1012.5 hPa | - | - | - | - |
| 1777992443 | 18.33° C | 62% | 1012.4 hPa | - | - | - | - |
| 1777991543 | 18.33° C | 59% | 1012.8 hPa | - | - | - | - |
| 1777990643 | 17.78° C | 64% | 1013 hPa | - | - | - | - |
| 1777989742 | 17.22° C | 70% | 1013 hPa | - | - | - | - |
| 1777988842 | 17.78° C | 69% | 1013.3 hPa | - | - | - | - |
| 1777987942 | 18.33° C | 70% | 1013.4 hPa | - | - | - | - |
| 1777987042 | 18.89° C | 63% | 1013.3 hPa | - | - | - | - |
| 1777986142 | 18.89° C | 70% | 1013.3 hPa | - | - | - | - |
| 1777985242 | 18.33° C | 70% | 1013.5 hPa | - | - | - | - |
| 1777984341 | 17.78° C | 74% | 1013.8 hPa | - | - | - | - |
| 1777983441 | 18.33° C | 67% | 1013.9 hPa | - | - | - | - |
| 1777982541 | 17.78° C | 73% | 1013.9 hPa | - | - | - | - |
| 1777981641 | 18.33° C | 71% | 1013.8 hPa | - | - | - | - |
| 1777979861 | 18.89° C | 75% | 1014.3 hPa | - | - | - | - |
| 1777978961 | 16.11° C | 89% | 1014.4 hPa | - | - | - | - |
| 1777978061 | 16.11° C | 90% | 1014.5 hPa | - | - | - | - |
| 1777977161 | 15.56° C | 88% | 1014.7 hPa | - | - | - | - |
| 1777976261 | 16.11° C | 85% | 1014.6 hPa | - | - | - | - |
| 1777975361 | 18.89° C | 73% | 1014.3 hPa | - | - | - | - |
| 1777974461 | 18.89° C | 77% | 1014 hPa | - | - | - | - |
| 1777973561 | 17.22° C | 85% | 1014.1 hPa | - | - | - | - |
| 1777972661 | 16.11° C | 87% | 1014.6 hPa | - | - | - | - |
| 1777971760 | 16.11° C | 74% | 1014.7 hPa | - | - | - | - |
* Rain since midnight (hover to see other rain measurements)
** Current wind speed in m/s (hover to see current wind gust speed)